sensor_id;sensor_type;location;lat;lon;timestamp;temperature;humidity
52030;DHT22;38043;53.224;6.580;2023-05-21T00:00:11;13.80;99.90
52030;DHT22;38043;53.224;6.580;2023-05-21T00:02:37;13.80;99.90
52030;DHT22;38043;53.224;6.580;2023-05-21T00:05:03;13.90;99.90
52030;DHT22;38043;53.224;6.580;2023-05-21T00:07:28;13.80;99.90
52030;DHT22;38043;53.224;6.580;2023-05-21T00:09:56;13.80;99.90
52030;DHT22;38043;53.224;6.580;2023-05-21T00:12:21;13.80;99.90
52030;DHT22;38043;53.224;6.580;2023-05-21T00:14:47;13.80;99.90
52030;DHT22;38043;53.224;6.580;2023-05-21T00:17:12;13.80;99.90
52030;DHT22;38043;53.224;6.580;2023-05-21T00:19:38;13.70;99.90
52030;DHT22;38043;53.224;6.580;2023-05-21T00:22:04;13.80;99.90
52030;DHT22;38043;53.224;6.580;2023-05-21T00:24:30;13.70;99.90
52030;DHT22;38043;53.224;6.580;2023-05-21T00:26:55;13.80;99.90
52030;DHT22;38043;53.224;6.580;2023-05-21T00:29:21;13.70;99.90
52030;DHT22;38043;53.224;6.580;2023-05-21T00:31:47;13.70;99.90
52030;DHT22;38043;53.224;6.580;2023-05-21T00:34:14;13.70;99.90
52030;DHT22;38043;53.224;6.580;2023-05-21T00:36:40;13.80;99.90
52030;DHT22;38043;53.224;6.580;2023-05-21T00:39:09;13.80;99.90
52030;DHT22;38043;53.224;6.580;2023-05-21T00:41:35;13.70;99.90
52030;DHT22;38043;53.224;6.580;2023-05-21T00:44:02;13.60;99.90
52030;DHT22;38043;53.224;6.580;2023-05-21T00:46:28;13.70;99.90
52030;DHT22;38043;53.224;6.580;2023-05-21T00:48:53;13.70;99.90
52030;DHT22;38043;53.224;6.580;2023-05-21T00:51:22;13.60;99.90
52030;DHT22;38043;53.224;6.580;2023-05-21T00:53:51;13.60;99.90
52030;DHT22;38043;53.224;6.580;2023-05-21T00:56:18;13.70;99.90
52030;DHT22;38043;53.224;6.580;2023-05-21T00:58:44;13.60;99.90
52030;DHT22;38043;53.224;6.580;2023-05-21T01:01:09;13.70;99.90
52030;DHT22;38043;53.224;6.580;2023-05-21T01:03:38;13.70;99.90
52030;DHT22;38043;53.224;6.580;2023-05-21T01:06:05;13.60;99.90
52030;DHT22;38043;53.224;6.580;2023-05-21T01:08:31;13.70;99.90
52030;DHT22;38043;53.224;6.580;2023-05-21T01:10:58;13.60;99.90
52030;DHT22;38043;53.224;6.580;2023-05-21T01:13:24;13.60;99.90
52030;DHT22;38043;53.224;6.580;2023-05-21T01:15:50;13.60;99.90
52030;DHT22;38043;53.224;6.580;2023-05-21T01:18:18;13.60;99.90
52030;DHT22;38043;53.224;6.580;2023-05-21T01:20:47;13.60;99.90
52030;DHT22;38043;53.224;6.580;2023-05-21T01:23:15;13.60;99.90
52030;DHT22;38043;53.224;6.580;2023-05-21T01:25:41;13.70;99.90
52030;DHT22;38043;53.224;6.580;2023-05-21T01:28:06;13.60;99.90
52030;DHT22;38043;53.224;6.580;2023-05-21T01:30:32;13.60;99.90
52030;DHT22;38043;53.224;6.580;2023-05-21T01:33:02;13.60;99.90
52030;DHT22;38043;53.224;6.580;2023-05-21T01:35:32;13.60;99.90
52030;DHT22;38043;53.224;6.580;2023-05-21T01:40:54;13.60;99.90
52030;DHT22;38043;53.224;6.580;2023-05-21T01:43:23;13.60;99.90
52030;DHT22;38043;53.224;6.580;2023-05-21T01:45:50;13.60;99.90
52030;DHT22;38043;53.224;6.580;2023-05-21T01:48:16;13.60;99.90
52030;DHT22;38043;53.224;6.580;2023-05-21T01:50:42;13.60;99.90
52030;DHT22;38043;53.224;6.580;2023-05-21T01:53:09;13.60;99.90
52030;DHT22;38043;53.224;6.580;2023-05-21T01:55:34;13.70;99.90
52030;DHT22;38043;53.224;6.580;2023-05-21T01:58:03;13.60;99.90
52030;DHT22;38043;53.224;6.580;2023-05-21T02:00:29;13.80;99.90
52030;DHT22;38043;53.224;6.580;2023-05-21T02:02:57;13.70;99.90
52030;DHT22;38043;53.224;6.580;2023-05-21T02:05:23;13.50;99.90
52030;DHT22;38043;53.224;6.580;2023-05-21T02:07:49;13.60;99.90
52030;DHT22;38043;53.224;6.580;2023-05-21T02:10:15;13.60;99.90
52030;DHT22;38043;53.224;6.580;2023-05-21T02:12:41;13.50;99.90
52030;DHT22;38043;53.224;6.580;2023-05-21T02:15:07;13.50;99.90
52030;DHT22;38043;53.224;6.580;2023-05-21T02:17:33;13.50;99.90
52030;DHT22;38043;53.224;6.580;2023-05-21T02:19:59;13.50;99.90
52030;DHT22;38043;53.224;6.580;2023-05-21T02:22:36;13.40;99.90
52030;DHT22;38043;53.224;6.580;2023-05-21T02:25:01;13.40;99.90
52030;DHT22;38043;53.224;6.580;2023-05-21T02:27:27;13.30;99.90
52030;DHT22;38043;53.224;6.580;2023-05-21T02:29:56;13.40;99.90
52030;DHT22;38043;53.224;6.580;2023-05-21T02:32:21;13.40;99.90
52030;DHT22;38043;53.224;6.580;2023-05-21T02:34:48;13.20;99.90
52030;DHT22;38043;53.224;6.580;2023-05-21T02:37:14;13.20;99.90
52030;DHT22;38043;53.224;6.580;2023-05-21T02:39:39;13.20;99.90
52030;DHT22;38043;53.224;6.580;2023-05-21T02:42:05;13.10;99.90
52030;DHT22;38043;53.224;6.580;2023-05-21T02:44:31;13.00;99.90
52030;DHT22;38043;53.224;6.580;2023-05-21T02:46:56;13.00;99.90
52030;DHT22;38043;53.224;6.580;2023-05-21T02:49:22;13.00;99.90
52030;DHT22;38043;53.224;6.580;2023-05-21T02:51:47;13.00;99.90
52030;DHT22;38043;53.224;6.580;2023-05-21T02:54:13;12.90;99.90
52030;DHT22;38043;53.224;6.580;2023-05-21T02:56:39;13.00;99.90
52030;DHT22;38043;53.224;6.580;2023-05-21T02:59:04;13.00;99.90
52030;DHT22;38043;53.224;6.580;2023-05-21T03:01:30;12.90;99.90
52030;DHT22;38043;53.224;6.580;2023-05-21T03:03:56;12.90;99.90
52030;DHT22;38043;53.224;6.580;2023-05-21T03:06:21;12.90;99.90
52030;DHT22;38043;53.224;6.580;2023-05-21T03:08:47;12.90;99.90
52030;DHT22;38043;53.224;6.580;2023-05-21T03:11:12;12.90;99.90
52030;DHT22;38043;53.224;6.580;2023-05-21T03:13:38;12.90;99.90
52030;DHT22;38043;53.224;6.580;2023-05-21T03:16:03;12.90;99.90
52030;DHT22;38043;53.224;6.580;2023-05-21T03:18:29;12.80;99.90
52030;DHT22;38043;53.224;6.580;2023-05-21T03:20:55;12.80;99.90
52030;DHT22;38043;53.224;6.580;2023-05-21T03:23:23;12.80;99.90
52030;DHT22;38043;53.224;6.580;2023-05-21T03:25:48;12.80;99.90
52030;DHT22;38043;53.224;6.580;2023-05-21T03:28:15;12.80;99.90
52030;DHT22;38043;53.224;6.580;2023-05-21T03:30:41;12.70;99.90
52030;DHT22;38043;53.224;6.580;2023-05-21T03:33:11;12.70;99.90
52030;DHT22;38043;53.224;6.580;2023-05-21T03:35:36;12.70;99.90
52030;DHT22;38043;53.224;6.580;2023-05-21T03:38:02;12.70;99.90
52030;DHT22;38043;53.224;6.580;2023-05-21T03:40:27;12.70;99.90
52030;DHT22;38043;53.224;6.580;2023-05-21T03:42:53;12.70;99.90
52030;DHT22;38043;53.224;6.580;2023-05-21T03:45:18;12.70;99.90
52030;DHT22;38043;53.224;6.580;2023-05-21T03:47:44;12.70;99.90
52030;DHT22;38043;53.224;6.580;2023-05-21T03:50:10;12.70;99.90
52030;DHT22;38043;53.224;6.580;2023-05-21T03:52:35;12.70;99.90
52030;DHT22;38043;53.224;6.580;2023-05-21T03:55:01;12.70;99.90
52030;DHT22;38043;53.224;6.580;2023-05-21T03:57:26;12.70;99.90
52030;DHT22;38043;53.224;6.580;2023-05-21T03:59:52;12.70;99.90
52030;DHT22;38043;53.224;6.580;2023-05-21T04:02:19;12.70;99.90
52030;DHT22;38043;53.224;6.580;2023-05-21T04:04:45;12.70;99.90
52030;DHT22;38043;53.224;6.580;2023-05-21T04:07:11;12.70;99.90
52030;DHT22;38043;53.224;6.580;2023-05-21T04:09:40;12.60;99.90
52030;DHT22;38043;53.224;6.580;2023-05-21T04:12:05;12.70;99.90
52030;DHT22;38043;53.224;6.580;2023-05-21T04:14:32;12.70;99.90
52030;DHT22;38043;53.224;6.580;2023-05-21T04:16:58;12.80;99.90
52030;DHT22;38043;53.224;6.580;2023-05-21T04:19:24;12.80;99.90
52030;DHT22;38043;53.224;6.580;2023-05-21T04:21:49;12.70;99.90
52030;DHT22;38043;53.224;6.580;2023-05-21T04:24:15;12.70;99.90
52030;DHT22;38043;53.224;6.580;2023-05-21T04:26:41;12.70;99.90
52030;DHT22;38043;53.224;6.580;2023-05-21T04:29:07;12.70;99.90
52030;DHT22;38043;53.224;6.580;2023-05-21T04:31:32;12.70;99.90
52030;DHT22;38043;53.224;6.580;2023-05-21T04:33:58;12.70;99.90
52030;DHT22;38043;53.224;6.580;2023-05-21T04:36:24;12.70;99.90
52030;DHT22;38043;53.224;6.580;2023-05-21T04:38:49;12.80;99.90
52030;DHT22;38043;53.224;6.580;2023-05-21T04:41:15;12.70;99.90
52030;DHT22;38043;53.224;6.580;2023-05-21T04:43:43;12.80;99.90
52030;DHT22;38043;53.224;6.580;2023-05-21T04:46:08;12.80;99.90
52030;DHT22;38043;53.224;6.580;2023-05-21T04:48:34;12.80;99.90
52030;DHT22;38043;53.224;6.580;2023-05-21T04:50:59;12.90;99.90
52030;DHT22;38043;53.224;6.580;2023-05-21T04:53:25;12.90;99.90
52030;DHT22;38043;53.224;6.580;2023-05-21T04:55:50;13.00;99.90
52030;DHT22;38043;53.224;6.580;2023-05-21T04:58:16;13.00;99.90
52030;DHT22;38043;53.224;6.580;2023-05-21T05:00:43;13.00;99.90
52030;DHT22;38043;53.224;6.580;2023-05-21T05:03:11;13.00;99.90
52030;DHT22;38043;53.224;6.580;2023-05-21T05:05:36;13.10;99.90
52030;DHT22;38043;53.224;6.580;2023-05-21T05:08:02;13.10;99.90
52030;DHT22;38043;53.224;6.580;2023-05-21T05:10:28;13.10;99.90
52030;DHT22;38043;53.224;6.580;2023-05-21T05:12:54;13.10;99.90
52030;DHT22;38043;53.224;6.580;2023-05-21T05:15:19;13.10;99.90
52030;DHT22;38043;53.224;6.580;2023-05-21T05:17:45;13.10;99.90
52030;DHT22;38043;53.224;6.580;2023-05-21T05:20:12;13.20;99.90
52030;DHT22;38043;53.224;6.580;2023-05-21T05:22:38;13.20;99.90
52030;DHT22;38043;53.224;6.580;2023-05-21T05:25:04;13.20;99.90
52030;DHT22;38043;53.224;6.580;2023-05-21T05:27:30;13.30;99.90
52030;DHT22;38043;53.224;6.580;2023-05-21T05:29:56;13.40;99.90
52030;DHT22;38043;53.224;6.580;2023-05-21T05:32:21;13.40;99.90
52030;DHT22;38043;53.224;6.580;2023-05-21T05:34:47;13.50;99.90
52030;DHT22;38043;53.224;6.580;2023-05-21T05:37:12;13.60;99.90
52030;DHT22;38043;53.224;6.580;2023-05-21T05:39:38;13.70;99.90
52030;DHT22;38043;53.224;6.580;2023-05-21T05:42:03;13.80;99.90
52030;DHT22;38043;53.224;6.580;2023-05-21T05:44:29;13.90;99.90
52030;DHT22;38043;53.224;6.580;2023-05-21T05:46:55;14.10;99.90
52030;DHT22;38043;53.224;6.580;2023-05-21T05:49:20;14.30;99.90
52030;DHT22;38043;53.224;6.580;2023-05-21T05:51:46;14.30;99.90
52030;DHT22;38043;53.224;6.580;2023-05-21T05:54:11;14.40;99.90
52030;DHT22;38043;53.224;6.580;2023-05-21T05:56:37;14.50;99.90
52030;DHT22;38043;53.224;6.580;2023-05-21T05:59:02;14.60;99.90
52030;DHT22;38043;53.224;6.580;2023-05-21T06:01:28;14.70;99.90
52030;DHT22;38043;53.224;6.580;2023-05-21T06:03:54;14.70;99.90
52030;DHT22;38043;53.224;6.580;2023-05-21T06:06:21;14.80;99.90
52030;DHT22;38043;53.224;6.580;2023-05-21T06:08:47;14.80;99.90
52030;DHT22;38043;53.224;6.580;2023-05-21T06:11:12;14.80;99.90
52030;DHT22;38043;53.224;6.580;2023-05-21T06:13:41;14.60;99.90
52030;DHT22;38043;53.224;6.580;2023-05-21T06:16:07;14.40;99.90
52030;DHT22;38043;53.224;6.580;2023-05-21T06:18:34;14.50;99.90
52030;DHT22;38043;53.224;6.580;2023-05-21T06:21:03;14.50;99.90
52030;DHT22;38043;53.224;6.580;2023-05-21T06:23:28;14.50;99.90
52030;DHT22;38043;53.224;6.580;2023-05-21T06:25:56;14.50;99.90
52030;DHT22;38043;53.224;6.580;2023-05-21T06:28:21;14.50;99.90
52030;DHT22;38043;53.224;6.580;2023-05-21T06:30:47;14.50;99.90
52030;DHT22;38043;53.224;6.580;2023-05-21T06:33:12;14.60;99.90
52030;DHT22;38043;53.224;6.580;2023-05-21T06:35:38;14.60;99.90
52030;DHT22;38043;53.224;6.580;2023-05-21T06:38:04;14.70;99.90
52030;DHT22;38043;53.224;6.580;2023-05-21T06:40:30;14.80;99.90
52030;DHT22;38043;53.224;6.580;2023-05-21T06:42:55;14.80;99.90
52030;DHT22;38043;53.224;6.580;2023-05-21T06:45:22;14.90;99.90
52030;DHT22;38043;53.224;6.580;2023-05-21T06:47:47;14.90;99.90
52030;DHT22;38043;53.224;6.580;2023-05-21T06:50:13;14.80;99.90
52030;DHT22;38043;53.224;6.580;2023-05-21T06:52:38;14.90;99.90
52030;DHT22;38043;53.224;6.580;2023-05-21T06:55:04;15.10;99.90
52030;DHT22;38043;53.224;6.580;2023-05-21T06:57:31;15.10;99.90
52030;DHT22;38043;53.224;6.580;2023-05-21T06:59:56;15.20;99.90
52030;DHT22;38043;53.224;6.580;2023-05-21T07:02:21;15.30;99.90
52030;DHT22;38043;53.224;6.580;2023-05-21T07:04:47;15.20;99.90
52030;DHT22;38043;53.224;6.580;2023-05-21T07:07:12;15.30;99.90
52030;DHT22;38043;53.224;6.580;2023-05-21T07:09:38;15.30;99.90
52030;DHT22;38043;53.224;6.580;2023-05-21T07:12:04;15.30;99.90
52030;DHT22;38043;53.224;6.580;2023-05-21T07:14:29;15.40;99.90
52030;DHT22;38043;53.224;6.580;2023-05-21T07:16:55;15.30;99.90
52030;DHT22;38043;53.224;6.580;2023-05-21T07:19:20;15.30;99.90
52030;DHT22;38043;53.224;6.580;2023-05-21T07:21:46;15.40;99.90
52030;DHT22;38043;53.224;6.580;2023-05-21T07:24:11;15.40;99.90
52030;DHT22;38043;53.224;6.580;2023-05-21T07:26:37;15.50;99.90
52030;DHT22;38043;53.224;6.580;2023-05-21T07:29:02;15.50;99.90
52030;DHT22;38043;53.224;6.580;2023-05-21T07:31:28;15.40;99.90
52030;DHT22;38043;53.224;6.580;2023-05-21T07:33:53;15.50;99.90
52030;DHT22;38043;53.224;6.580;2023-05-21T07:36:19;15.60;99.90
52030;DHT22;38043;53.224;6.580;2023-05-21T07:38:44;15.60;99.90
52030;DHT22;38043;53.224;6.580;2023-05-21T07:41:10;15.70;99.90
52030;DHT22;38043;53.224;6.580;2023-05-21T07:43:37;15.60;99.90
52030;DHT22;38043;53.224;6.580;2023-05-21T07:46:02;15.60;99.90
52030;DHT22;38043;53.224;6.580;2023-05-21T07:48:28;15.70;99.90
52030;DHT22;38043;53.224;6.580;2023-05-21T07:50:53;15.80;99.90
52030;DHT22;38043;53.224;6.580;2023-05-21T07:53:20;15.90;99.90
52030;DHT22;38043;53.224;6.580;2023-05-21T07:55:46;15.90;99.90
52030;DHT22;38043;53.224;6.580;2023-05-21T07:58:15;15.90;99.90
52030;DHT22;38043;53.224;6.580;2023-05-21T08:00:42;16.10;99.90
52030;DHT22;38043;53.224;6.580;2023-05-21T08:03:08;16.10;99.90
52030;DHT22;38043;53.224;6.580;2023-05-21T08:05:36;16.10;99.90
52030;DHT22;38043;53.224;6.580;2023-05-21T08:08:01;16.10;99.90
52030;DHT22;38043;53.224;6.580;2023-05-21T08:10:27;16.20;99.90
52030;DHT22;38043;53.224;6.580;2023-05-21T08:12:53;16.10;99.90
52030;DHT22;38043;53.224;6.580;2023-05-21T08:15:18;16.10;99.90
52030;DHT22;38043;53.224;6.580;2023-05-21T08:17:44;16.10;99.90
52030;DHT22;38043;53.224;6.580;2023-05-21T08:20:10;16.20;99.90
52030;DHT22;38043;53.224;6.580;2023-05-21T08:22:35;16.20;99.90
52030;DHT22;38043;53.224;6.580;2023-05-21T08:25:01;16.20;99.90
52030;DHT22;38043;53.224;6.580;2023-05-21T08:27:27;16.30;99.90
52030;DHT22;38043;53.224;6.580;2023-05-21T08:29:52;16.30;99.90
52030;DHT22;38043;53.224;6.580;2023-05-21T08:32:18;16.40;99.90
52030;DHT22;38043;53.224;6.580;2023-05-21T08:34:43;16.50;99.90
52030;DHT22;38043;53.224;6.580;2023-05-21T08:37:09;16.50;99.90
52030;DHT22;38043;53.224;6.580;2023-05-21T08:39:34;16.70;99.90
52030;DHT22;38043;53.224;6.580;2023-05-21T08:42:10;16.80;99.90
52030;DHT22;38043;53.224;6.580;2023-05-21T08:44:42;16.80;99.90
52030;DHT22;38043;53.224;6.580;2023-05-21T08:47:08;16.80;99.90
52030;DHT22;38043;53.224;6.580;2023-05-21T08:49:34;16.90;99.90
52030;DHT22;38043;53.224;6.580;2023-05-21T08:52:00;16.90;99.90
52030;DHT22;38043;53.224;6.580;2023-05-21T08:54:26;17.00;99.90
52030;DHT22;38043;53.224;6.580;2023-05-21T08:56:52;16.90;99.90
52030;DHT22;38043;53.224;6.580;2023-05-21T08:59:18;17.00;99.90
52030;DHT22;38043;53.224;6.580;2023-05-21T09:01:45;17.00;99.90
52030;DHT22;38043;53.224;6.580;2023-05-21T09:04:11;16.90;99.90
52030;DHT22;38043;53.224;6.580;2023-05-21T09:06:39;16.90;99.90
52030;DHT22;38043;53.224;6.580;2023-05-21T09:09:20;17.00;99.90
52030;DHT22;38043;53.224;6.580;2023-05-21T09:11:49;17.10;99.90
52030;DHT22;38043;53.224;6.580;2023-05-21T09:14:15;17.10;99.90
52030;DHT22;38043;53.224;6.580;2023-05-21T09:16:41;17.30;99.90
52030;DHT22;38043;53.224;6.580;2023-05-21T09:19:06;17.40;99.90
52030;DHT22;38043;53.224;6.580;2023-05-21T09:21:32;17.20;99.90
52030;DHT22;38043;53.224;6.580;2023-05-21T09:23:58;17.20;99.90
52030;DHT22;38043;53.224;6.580;2023-05-21T09:26:24;17.20;99.90
52030;DHT22;38043;53.224;6.580;2023-05-21T09:28:51;17.40;99.90
52030;DHT22;38043;53.224;6.580;2023-05-21T09:31:21;17.40;99.90
52030;DHT22;38043;53.224;6.580;2023-05-21T09:33:48;17.30;99.90
52030;DHT22;38043;53.224;6.580;2023-05-21T09:36:13;17.40;99.90
52030;DHT22;38043;53.224;6.580;2023-05-21T09:38:39;17.40;99.90
52030;DHT22;38043;53.224;6.580;2023-05-21T09:41:05;17.60;99.90
52030;DHT22;38043;53.224;6.580;2023-05-21T09:43:33;17.70;99.90
52030;DHT22;38043;53.224;6.580;2023-05-21T09:45:59;18.00;99.90
52030;DHT22;38043;53.224;6.580;2023-05-21T09:53:35;18.20;99.90
52030;DHT22;38043;53.224;6.580;2023-05-21T09:56:01;18.10;99.90
52030;DHT22;38043;53.224;6.580;2023-05-21T09:58:27;17.90;99.90
52030;DHT22;38043;53.224;6.580;2023-05-21T10:00:53;18.00;99.90
52030;DHT22;38043;53.224;6.580;2023-05-21T10:03:19;18.00;99.90
52030;DHT22;38043;53.224;6.580;2023-05-21T10:05:47;18.20;99.90
52030;DHT22;38043;53.224;6.580;2023-05-21T10:08:13;18.00;99.90
52030;DHT22;38043;53.224;6.580;2023-05-21T10:10:40;18.20;99.90
52030;DHT22;38043;53.224;6.580;2023-05-21T10:13:09;18.40;99.90
52030;DHT22;38043;53.224;6.580;2023-05-21T10:15:37;18.40;99.90
52030;DHT22;38043;53.224;6.580;2023-05-21T10:18:03;18.50;99.90
52030;DHT22;38043;53.224;6.580;2023-05-21T10:20:31;18.60;99.90
52030;DHT22;38043;53.224;6.580;2023-05-21T10:22:57;18.50;99.90
52030;DHT22;38043;53.224;6.580;2023-05-21T10:25:24;18.40;99.90
52030;DHT22;38043;53.224;6.580;2023-05-21T10:27:53;18.50;99.90
52030;DHT22;38043;53.224;6.580;2023-05-21T10:30:19;18.30;99.90
52030;DHT22;38043;53.224;6.580;2023-05-21T10:32:46;18.20;99.90
52030;DHT22;38043;53.224;6.580;2023-05-21T10:35:14;18.50;99.90
52030;DHT22;38043;53.224;6.580;2023-05-21T10:37:40;18.50;99.90
52030;DHT22;38043;53.224;6.580;2023-05-21T10:40:06;18.50;99.90
52030;DHT22;38043;53.224;6.580;2023-05-21T10:51:00;18.50;99.90
52030;DHT22;38043;53.224;6.580;2023-05-21T11:01:27;18.60;99.90
52030;DHT22;38043;53.224;6.580;2023-05-21T11:03:54;18.70;99.90
52030;DHT22;38043;53.224;6.580;2023-05-21T11:06:21;18.70;99.90
52030;DHT22;38043;53.224;6.580;2023-05-21T11:08:47;18.80;99.90
52030;DHT22;38043;53.224;6.580;2023-05-21T11:11:12;18.80;99.90
52030;DHT22;38043;53.224;6.580;2023-05-21T11:13:58;18.70;99.90
52030;DHT22;38043;53.224;6.580;2023-05-21T11:16:23;18.80;99.90
52030;DHT22;38043;53.224;6.580;2023-05-21T11:21:20;18.90;99.90
52030;DHT22;38043;53.224;6.580;2023-05-21T11:26:15;19.30;99.90
52030;DHT22;38043;53.224;6.580;2023-05-21T11:28:41;19.20;99.90
52030;DHT22;38043;53.224;6.580;2023-05-21T11:31:22;19.00;99.90
52030;DHT22;38043;53.224;6.580;2023-05-21T11:36:48;19.10;99.90
52030;DHT22;38043;53.224;6.580;2023-05-21T11:47:08;19.20;99.90
52030;DHT22;38043;53.224;6.580;2023-05-21T11:49:34;19.20;99.90
52030;DHT22;38043;53.224;6.580;2023-05-21T11:52:00;19.20;99.90
52030;DHT22;38043;53.224;6.580;2023-05-21T11:54:26;19.20;99.90
52030;DHT22;38043;53.224;6.580;2023-05-21T11:56:55;19.00;99.90
52030;DHT22;38043;53.224;6.580;2023-05-21T11:59:20;18.90;99.90
52030;DHT22;38043;53.224;6.580;2023-05-21T12:01:46;18.90;99.90
52030;DHT22;38043;53.224;6.580;2023-05-21T12:04:12;18.80;99.90
52030;DHT22;38043;53.224;6.580;2023-05-21T12:06:40;18.80;99.90
52030;DHT22;38043;53.224;6.580;2023-05-21T12:09:10;18.70;99.90
52030;DHT22;38043;53.224;6.580;2023-05-21T12:11:41;18.80;99.90
52030;DHT22;38043;53.224;6.580;2023-05-21T12:14:08;18.70;99.90
52030;DHT22;38043;53.224;6.580;2023-05-21T12:16:34;18.80;99.90
52030;DHT22;38043;53.224;6.580;2023-05-21T12:19:00;19.00;99.90
52030;DHT22;38043;53.224;6.580;2023-05-21T12:21:28;19.00;99.90
52030;DHT22;38043;53.224;6.580;2023-05-21T12:23:54;19.20;99.90
52030;DHT22;38043;53.224;6.580;2023-05-21T12:26:20;19.20;99.90
52030;DHT22;38043;53.224;6.580;2023-05-21T12:28:46;19.20;99.90
52030;DHT22;38043;53.224;6.580;2023-05-21T12:31:13;19.40;99.90
52030;DHT22;38043;53.224;6.580;2023-05-21T12:33:39;19.30;99.90
52030;DHT22;38043;53.224;6.580;2023-05-21T12:36:04;19.30;99.90
52030;DHT22;38043;53.224;6.580;2023-05-21T12:38:30;19.50;99.90
52030;DHT22;38043;53.224;6.580;2023-05-21T12:41:01;19.60;99.90
52030;DHT22;38043;53.224;6.580;2023-05-21T12:43:30;19.60;99.90
52030;DHT22;38043;53.224;6.580;2023-05-21T12:45:55;19.60;99.90
52030;DHT22;38043;53.224;6.580;2023-05-21T12:48:21;19.70;99.90
52030;DHT22;38043;53.224;6.580;2023-05-21T12:50:46;19.80;99.90
52030;DHT22;38043;53.224;6.580;2023-05-21T12:53:12;19.60;99.90
52030;DHT22;38043;53.224;6.580;2023-05-21T12:55:38;19.40;99.90
52030;DHT22;38043;53.224;6.580;2023-05-21T12:58:04;19.50;99.90
52030;DHT22;38043;53.224;6.580;2023-05-21T13:00:32;19.80;99.90
52030;DHT22;38043;53.224;6.580;2023-05-21T13:02:58;19.90;99.90
52030;DHT22;38043;53.224;6.580;2023-05-21T13:05:25;20.00;99.90
52030;DHT22;38043;53.224;6.580;2023-05-21T13:07:50;19.80;99.90
52030;DHT22;38043;53.224;6.580;2023-05-21T13:10:16;19.90;99.90
52030;DHT22;38043;53.224;6.580;2023-05-21T13:12:42;19.90;99.90
52030;DHT22;38043;53.224;6.580;2023-05-21T13:15:07;19.80;99.90
52030;DHT22;38043;53.224;6.580;2023-05-21T13:17:33;19.80;99.90
52030;DHT22;38043;53.224;6.580;2023-05-21T13:22:31;20.10;99.90
52030;DHT22;38043;53.224;6.580;2023-05-21T13:24:57;20.40;99.90
52030;DHT22;38043;53.224;6.580;2023-05-21T13:27:22;20.40;99.90
52030;DHT22;38043;53.224;6.580;2023-05-21T13:29:48;20.60;99.90
52030;DHT22;38043;53.224;6.580;2023-05-21T13:32:13;20.50;99.90
52030;DHT22;38043;53.224;6.580;2023-05-21T13:34:39;20.80;99.90
52030;DHT22;38043;53.224;6.580;2023-05-21T13:37:05;20.80;99.90
52030;DHT22;38043;53.224;6.580;2023-05-21T13:39:30;20.80;99.90
52030;DHT22;38043;53.224;6.580;2023-05-21T13:41:56;20.80;99.90
52030;DHT22;38043;53.224;6.580;2023-05-21T13:44:21;21.00;99.90
52030;DHT22;38043;53.224;6.580;2023-05-21T13:46:47;21.10;99.90
52030;DHT22;38043;53.224;6.580;2023-05-21T13:49:12;21.10;99.90
52030;DHT22;38043;53.224;6.580;2023-05-21T13:51:38;21.20;99.90
52030;DHT22;38043;53.224;6.580;2023-05-21T13:54:06;21.20;99.90
52030;DHT22;38043;53.224;6.580;2023-05-21T13:56:32;21.00;99.90
52030;DHT22;38043;53.224;6.580;2023-05-21T13:58:58;21.20;99.90
52030;DHT22;38043;53.224;6.580;2023-05-21T14:01:24;21.50;99.90
52030;DHT22;38043;53.224;6.580;2023-05-21T14:03:49;21.50;99.90
52030;DHT22;38043;53.224;6.580;2023-05-21T14:06:15;21.60;99.90
52030;DHT22;38043;53.224;6.580;2023-05-21T14:08:40;21.60;99.90
52030;DHT22;38043;53.224;6.580;2023-05-21T14:11:06;21.80;99.90
52030;DHT22;38043;53.224;6.580;2023-05-21T14:13:31;21.80;99.90
52030;DHT22;38043;53.224;6.580;2023-05-21T14:15:57;22.00;99.90
52030;DHT22;38043;53.224;6.580;2023-05-21T14:18:23;22.20;99.90
52030;DHT22;38043;53.224;6.580;2023-05-21T14:20:49;22.50;99.90
52030;DHT22;38043;53.224;6.580;2023-05-21T14:23:15;22.90;99.90
52030;DHT22;38043;53.224;6.580;2023-05-21T14:25:40;22.90;99.90
52030;DHT22;38043;53.224;6.580;2023-05-21T14:28:06;23.00;99.90
52030;DHT22;38043;53.224;6.580;2023-05-21T14:30:32;23.20;99.90
52030;DHT22;38043;53.224;6.580;2023-05-21T14:32:57;23.30;99.90
52030;DHT22;38043;53.224;6.580;2023-05-21T14:35:23;23.20;99.90
52030;DHT22;38043;53.224;6.580;2023-05-21T14:37:49;23.00;99.90
52030;DHT22;38043;53.224;6.580;2023-05-21T14:40:14;23.10;99.90
52030;DHT22;38043;53.224;6.580;2023-05-21T14:42:40;23.20;99.90
52030;DHT22;38043;53.224;6.580;2023-05-21T14:45:05;23.20;99.90
52030;DHT22;38043;53.224;6.580;2023-05-21T14:47:31;23.00;99.90
52030;DHT22;38043;53.224;6.580;2023-05-21T14:49:57;22.90;99.90
52030;DHT22;38043;53.224;6.580;2023-05-21T14:52:22;22.90;99.90
52030;DHT22;38043;53.224;6.580;2023-05-21T14:54:48;23.50;99.90
52030;DHT22;38043;53.224;6.580;2023-05-21T14:57:13;23.70;99.90
52030;DHT22;38043;53.224;6.580;2023-05-21T14:59:39;23.90;99.90
52030;DHT22;38043;53.224;6.580;2023-05-21T15:02:05;24.40;99.90
52030;DHT22;38043;53.224;6.580;2023-05-21T15:04:30;24.40;99.90
52030;DHT22;38043;53.224;6.580;2023-05-21T15:06:56;24.70;99.90
52030;DHT22;38043;53.224;6.580;2023-05-21T15:09:21;24.80;99.90
52030;DHT22;38043;53.224;6.580;2023-05-21T15:11:47;24.80;99.90
52030;DHT22;38043;53.224;6.580;2023-05-21T15:14:17;24.80;99.90
52030;DHT22;38043;53.224;6.580;2023-05-21T15:16:42;24.60;99.90
52030;DHT22;38043;53.224;6.580;2023-05-21T15:19:08;24.60;99.90
52030;DHT22;38043;53.224;6.580;2023-05-21T15:21:33;24.50;99.90
52030;DHT22;38043;53.224;6.580;2023-05-21T15:23:59;24.30;99.90
52030;DHT22;38043;53.224;6.580;2023-05-21T15:26:24;23.80;99.90
52030;DHT22;38043;53.224;6.580;2023-05-21T15:28:51;23.70;99.90
52030;DHT22;38043;53.224;6.580;2023-05-21T15:31:17;23.40;99.90
52030;DHT22;38043;53.224;6.580;2023-05-21T15:33:42;23.20;99.90
52030;DHT22;38043;53.224;6.580;2023-05-21T15:36:08;23.20;99.90
52030;DHT22;38043;53.224;6.580;2023-05-21T15:38:34;23.10;99.90
52030;DHT22;38043;53.224;6.580;2023-05-21T15:40:59;23.00;99.90
52030;DHT22;38043;53.224;6.580;2023-05-21T15:43:25;22.80;99.90
52030;DHT22;38043;53.224;6.580;2023-05-21T15:45:50;22.60;99.90
52030;DHT22;38043;53.224;6.580;2023-05-21T15:48:16;22.40;99.90
52030;DHT22;38043;53.224;6.580;2023-05-21T15:50:47;22.40;99.90
52030;DHT22;38043;53.224;6.580;2023-05-21T15:53:13;22.40;99.90
52030;DHT22;38043;53.224;6.580;2023-05-21T15:55:39;22.40;99.90
52030;DHT22;38043;53.224;6.580;2023-05-21T15:58:04;22.40;99.90
52030;DHT22;38043;53.224;6.580;2023-05-21T16:00:30;22.30;99.90
52030;DHT22;38043;53.224;6.580;2023-05-21T16:02:56;22.40;99.90
52030;DHT22;38043;53.224;6.580;2023-05-21T16:05:21;22.40;99.90